^^
Station Historical Data
Daily Summary for February 5, 2018 Units:  Both    English   Metric
« Previous Day
Next Day »
Daily Weekly Monthly Yearly Custom
  High: Low: Average:
Temperature: TemperatureF °F /  -17.8 °C 70.5 °F /  21.4 °C 78.2 °F /  25.7 °C
Dew Point: DewpointF °F /  -17.8 °C 45.7 °F /  7.6 °C 49.6 °F /  9.8 °C
Humidity: Humidity% 29% 37%
Wind Speed: WindSpeedMPHmph /  0km/h - -2.2mph /  -3.5km/h
Wind Gust: WindSpeedGustMPHmph /  0km/h - -
Wind- - NNE
Pressure: PressureIn in /  0 hPa 29.51 in /  999.2 hPa -
Precipitation: 0.00 in /  0 mm    
Historical Graphs
 
 
Tabular Data for February 5, 2018
Time Temperature Dew Point Pressure Wind Wind Speed Wind Gust Humidity Rainfall Rate (Hourly) solar Conditions
TemperatureF °F /  -17.8 °C DewpointF °F /  -17.8 °C PressureInin /  0hPa Calm     Humidity% HourlyPrecipInin /  0mm SoftwareType W/m2 Conditions
08:17 70.9 °F /  21.6 °C 53.4 °F /  11.9 °C 29.59in /  1001.9hPa NE 4.9mph /  7.9km/h 6.0mph /  9.7km/h 54% 0.00in /  0mm meteobridge W/m2
08:24 70.5 °F /  21.4 °C 53.1 °F /  11.7 °C 29.59in /  1001.9hPa NE 6.0mph /  9.7km/h 7.0mph /  11.3km/h 54% 0.00in /  0mm meteobridge W/m2
08:30 70.9 °F /  21.6 °C 53.4 °F /  11.9 °C 29.60in /  1002.3hPa NE 4.9mph /  7.9km/h 6.0mph /  9.7km/h 54% 0.00in /  0mm meteobridge W/m2
08:36 71.2 °F /  21.8 °C 53.8 °F /  12.1 °C 29.60in /  1002.3hPa NE 2.9mph /  4.7km/h 7.0mph /  11.3km/h 54% 0.00in /  0mm meteobridge W/m2
08:42 70.9 °F /  21.6 °C 53.4 °F /  11.9 °C 29.60in /  1002.3hPa NE 4.0mph /  6.4km/h 8.0mph /  12.9km/h 54% 0.00in /  0mm meteobridge W/m2
08:48 70.9 °F /  21.6 °C 53.4 °F /  11.9 °C 29.61in /  1002.6hPa NNE 4.0mph /  6.4km/h 7.0mph /  11.3km/h 54% 0.00in /  0mm meteobridge W/m2
08:54 71.8 °F /  22.1 °C 54.3 °F /  12.4 °C 29.60in /  1002.3hPa NE 4.9mph /  7.9km/h 12.0mph /  19.3km/h 54% 0.00in /  0mm meteobridge W/m2
09:00 72.7 °F /  22.6 °C 54.0 °F /  12.2 °C 29.61in /  1002.6hPa NNE 4.0mph /  6.4km/h 11.0mph /  17.7km/h 52% 0.00in /  0mm meteobridge W/m2
09:06 73.0 °F /  22.8 °C 53.8 °F /  12.1 °C 29.61in /  1002.6hPa ENE 4.0mph /  6.4km/h 11.0mph /  17.7km/h 51% 0.00in /  0mm meteobridge W/m2
09:12 73.6 °F /  23.1 °C 54.3 °F /  12.4 °C 29.61in /  1002.6hPa NE 4.0mph /  6.4km/h 7.0mph /  11.3km/h 51% 0.00in /  0mm meteobridge W/m2
09:19 74.3 °F /  23.5 °C 54.0 °F /  12.2 °C 29.61in /  1002.6hPa ENE 4.0mph /  6.4km/h 8.0mph /  12.9km/h 49% 0.00in /  0mm meteobridge W/m2
09:25 75.0 °F /  23.9 °C 54.5 °F /  12.5 °C 29.60in /  1002.3hPa NE 4.0mph /  6.4km/h 9.0mph /  14.5km/h 49% 0.00in /  0mm meteobridge W/m2
09:31 75.4 °F /  24.1 °C 54.3 °F /  12.4 °C 29.61in /  1002.6hPa NE 6.0mph /  9.7km/h 7.0mph /  11.3km/h 48% 0.00in /  0mm meteobridge W/m2
09:37 75.4 °F /  24.1 °C 53.8 °F /  12.1 °C 29.60in /  1002.3hPa NE 4.9mph /  7.9km/h 6.0mph /  9.7km/h 47% 0.00in /  0mm meteobridge W/m2
09:43 75.0 °F /  23.9 °C 54.0 °F /  12.2 °C 29.60in /  1002.3hPa NE 8.9mph /  14.3km/h 9.0mph /  14.5km/h 48% 0.00in /  0mm meteobridge W/m2
09:49 75.6 °F /  24.2 °C 54.5 °F /  12.5 °C 29.61in /  1002.6hPa NNE 2.9mph /  4.7km/h 6.0mph /  9.7km/h 48% 0.00in /  0mm meteobridge W/m2
09:55 75.6 °F /  24.2 °C 54.5 °F /  12.5 °C 29.61in /  1002.6hPa Calm   3.0mph /  4.8km/h 48% 0.00in /  0mm meteobridge W/m2
10:02 76.5 °F /  24.7 °C 55.4 °F /  13 °C 29.60in /  1002.3hPa SSE 2.9mph /  4.7km/h 3.0mph /  4.8km/h 48% 0.00in /  0mm meteobridge W/m2
10:08 77.2 °F /  25.1 °C 55.4 °F /  13 °C 29.60in /  1002.3hPa NE 2.0mph /  3.2km/h 9.0mph /  14.5km/h 47% 0.00in /  0mm meteobridge W/m2
10:14 76.8 °F /  24.9 °C 53.8 °F /  12.1 °C 29.60in /  1002.3hPa North 0.9mph /  1.4km/h 7.0mph /  11.3km/h 45% 0.00in /  0mm meteobridge W/m2
10:20 76.8 °F /  24.9 °C 54.5 °F /  12.5 °C 29.60in /  1002.3hPa Calm   1.0mph /  1.6km/h 46% 0.00in /  0mm meteobridge W/m2
10:26 77.2 °F /  25.1 °C 54.9 °F /  12.7 °C 29.59in /  1001.9hPa NE 2.9mph /  4.7km/h 3.0mph /  4.8km/h 46% 0.00in /  0mm meteobridge W/m2
10:32 77.4 °F /  25.2 °C 54.3 °F /  12.4 °C 29.60in /  1002.3hPa North 11.0mph /  17.7km/h 13.0mph /  20.9km/h 45% 0.00in /  0mm meteobridge W/m2
10:39 77.2 °F /  25.1 °C 51.6 °F /  10.9 °C 29.59in /  1001.9hPa NNW 2.0mph /  3.2km/h 17.0mph /  27.4km/h 41% 0.00in /  0mm meteobridge W/m2
10:45 77.4 °F /  25.2 °C 50.5 °F /  10.3 °C 29.59in /  1001.9hPa North 10.1mph /  16.3km/h 18.0mph /  29km/h 39% 0.00in /  0mm meteobridge W/m2
10:51 77.7 °F /  25.4 °C 50.7 °F /  10.4 °C 29.59in /  1001.9hPa North 17.0mph /  27.4km/h 17.0mph /  27.4km/h 39% 0.00in /  0mm meteobridge W/m2
10:57 78.6 °F /  25.9 °C 51.6 °F /  10.9 °C 29.59in /  1001.9hPa NNE 8.9mph /  14.3km/h 15.0mph /  24.1km/h 39% 0.00in /  0mm meteobridge W/m2
11:03 79.5 °F /  26.4 °C 50.2 °F /  10.1 °C 29.59in /  1001.9hPa NNE 6.0mph /  9.7km/h 13.0mph /  20.9km/h 36% 0.00in /  0mm meteobridge W/m2
11:09 79.9 °F /  26.6 °C 51.3 °F /  10.7 °C 29.59in /  1001.9hPa North 16.1mph /  25.9km/h 16.1mph /  25.9km/h 37% 0.00in /  0mm meteobridge W/m2
11:15 80.2 °F /  26.8 °C 51.6 °F /  10.9 °C 29.59in /  1001.9hPa NE 11.0mph /  17.7km/h 15.0mph /  24.1km/h 37% 0.00in /  0mm meteobridge W/m2
11:21 80.1 °F /  26.7 °C 52.2 °F /  11.2 °C 29.59in /  1001.9hPa North 16.1mph /  25.9km/h 16.1mph /  25.9km/h 38% 0.00in /  0mm meteobridge W/m2
11:27 80.6 °F /  27 °C 51.3 °F /  10.7 °C 29.59in /  1001.9hPa NNE 8.9mph /  14.3km/h 12.0mph /  19.3km/h 36% 0.00in /  0mm meteobridge W/m2
11:35 80.4 °F /  26.9 °C 49.5 °F /  9.7 °C 29.59in /  1001.9hPa North 4.9mph /  7.9km/h 18.0mph /  29km/h 34% 0.00in /  0mm meteobridge W/m2
11:41 80.2 °F /  26.8 °C 49.3 °F /  9.6 °C 29.59in /  1001.9hPa North 10.1mph /  16.3km/h 21.0mph /  33.8km/h 34% 0.00in /  0mm meteobridge W/m2
11:48 79.7 °F /  26.5 °C 47.3 °F /  8.5 °C 29.58in /  1001.6hPa NNW 11.0mph /  17.7km/h 22.0mph /  35.4km/h 32% 0.00in /  0mm meteobridge W/m2
11:54 80.1 °F /  26.7 °C 49.1 °F /  9.5 °C 29.58in /  1001.6hPa North 16.1mph /  25.9km/h 22.0mph /  35.4km/h 34% 0.00in /  0mm meteobridge W/m2
12:00 80.1 °F /  26.7 °C 47.5 °F /  8.6 °C 29.58in /  1001.6hPa NNE 14.1mph /  22.7km/h 27.0mph /  43.5km/h 32% 0.00in /  0mm meteobridge W/m2
12:06 80.1 °F /  26.7 °C 48.4 °F /  9.1 °C 29.58in /  1001.6hPa NNW 15.0mph /  24.1km/h 21.0mph /  33.8km/h 33% 0.00in /  0mm meteobridge W/m2
12:12 80.2 °F /  26.8 °C 49.3 °F /  9.6 °C 29.58in /  1001.6hPa NNW 15.0mph /  24.1km/h 17.0mph /  27.4km/h 34% 0.00in /  0mm meteobridge W/m2
12:22 80.2 °F /  26.8 °C 48.6 °F /  9.2 °C 29.58in /  1001.6hPa NNE 6.9mph /  11.1km/h 18.0mph /  29km/h 33% 0.00in /  0mm meteobridge W/m2
12:30 80.1 °F /  26.7 °C 47.5 °F /  8.6 °C 29.58in /  1001.6hPa North 4.9mph /  7.9km/h 17.0mph /  27.4km/h 32% 0.00in /  0mm meteobridge W/m2
12:36 81.0 °F /  27.2 °C 48.4 °F /  9.1 °C 29.57in /  1001.2hPa NNE 6.9mph /  11.1km/h 22.0mph /  35.4km/h 32% 0.00in /  0mm meteobridge W/m2
12:42 81.9 °F /  27.7 °C 49.1 °F /  9.5 °C 29.58in /  1001.6hPa NNE 11.0mph /  17.7km/h 16.0mph /  25.7km/h 32% 0.00in /  0mm meteobridge W/m2
13:01 82.8 °F /  28.2 °C 47.3 °F /  8.5 °C 29.57in /  1001.2hPa North 10.1mph /  16.3km/h 14.0mph /  22.5km/h 29% 0.00in /  0mm meteobridge W/m2
13:07 82.2 °F /  27.9 °C 48.6 °F /  9.2 °C 29.57in /  1001.2hPa NE 17.9mph /  28.8km/h 20.0mph /  32.2km/h 31% 0.00in /  0mm meteobridge W/m2
13:13 81.1 °F /  27.3 °C 47.7 °F /  8.7 °C 29.57in /  1001.2hPa ENE 6.9mph /  11.1km/h 23.0mph /  37km/h 31% 0.00in /  0mm meteobridge W/m2
13:19 81.1 °F /  27.3 °C 47.7 °F /  8.7 °C 29.57in /  1001.2hPa NW 2.9mph /  4.7km/h 17.0mph /  27.4km/h 31% 0.00in /  0mm meteobridge W/m2
13:39 81.1 °F /  27.3 °C 47.7 °F /  8.7 °C 29.57in /  1001.2hPa NNE 14.1mph /  22.7km/h 19.0mph /  30.6km/h 31% 0.00in /  0mm meteobridge W/m2
13:45 81.1 °F /  27.3 °C 46.8 °F /  8.2 °C 29.57in /  1001.2hPa North 10.1mph /  16.3km/h 11.0mph /  17.7km/h 30% 0.00in /  0mm meteobridge W/m2
13:51 81.0 °F /  27.2 °C 48.4 °F /  9.1 °C 29.57in /  1001.2hPa NE 10.1mph /  16.3km/h 22.0mph /  35.4km/h 32% 0.00in /  0mm meteobridge W/m2
13:58 81.0 °F /  27.2 °C 48.4 °F /  9.1 °C 29.57in /  1001.2hPa NW 6.9mph /  11.1km/h 16.0mph /  25.7km/h 32% 0.00in /  0mm meteobridge W/m2
14:04 81.0 °F /  27.2 °C 48.4 °F /  9.1 °C 29.57in /  1001.2hPa NNE 10.1mph /  16.3km/h 17.0mph /  27.4km/h 32% 0.00in /  0mm meteobridge W/m2
14:10 80.6 °F /  27 °C 48.0 °F /  8.9 °C 29.57in /  1001.2hPa NNE 17.0mph /  27.4km/h 17.0mph /  27.4km/h 32% 0.00in /  0mm meteobridge W/m2
14:16 80.8 °F /  27.1 °C 47.3 °F /  8.5 °C 29.57in /  1001.2hPa NNE 10.1mph /  16.3km/h 11.0mph /  17.7km/h 31% 0.00in /  0mm meteobridge W/m2
14:22 81.1 °F /  27.3 °C 46.8 °F /  8.2 °C 29.56in /  1000.9hPa NNW 17.0mph /  27.4km/h 17.0mph /  27.4km/h 30% 0.00in /  0mm meteobridge W/m2
14:28 81.0 °F /  27.2 °C 45.7 °F /  7.6 °C 29.56in /  1000.9hPa North 10.1mph /  16.3km/h 17.0mph /  27.4km/h 29% 0.00in /  0mm meteobridge W/m2
14:34 81.0 °F /  27.2 °C 46.6 °F /  8.1 °C 29.55in /  1000.6hPa NNE 15.0mph /  24.1km/h 16.0mph /  25.7km/h 30% 0.00in /  0mm meteobridge W/m2
14:40 80.8 °F /  27.1 °C 48.2 °F /  9 °C 29.55in /  1000.6hPa North 11.0mph /  17.7km/h 17.0mph /  27.4km/h 32% 0.00in /  0mm meteobridge W/m2
14:46 81.3 °F /  27.4 °C 47.8 °F /  8.8 °C 29.55in /  1000.6hPa NNW 8.9mph /  14.3km/h 18.0mph /  29km/h 31% 0.00in /  0mm meteobridge W/m2
14:53 81.9 °F /  27.7 °C 48.2 °F /  9 °C 29.55in /  1000.6hPa NE 4.9mph /  7.9km/h 12.0mph /  19.3km/h 31% 0.00in /  0mm meteobridge W/m2
14:59 83.3 °F /  28.5 °C 49.5 °F /  9.7 °C 29.54in /  1000.2hPa NNE 11.0mph /  17.7km/h 16.0mph /  25.7km/h 31% 0.00in /  0mm meteobridge W/m2
15:05 82.6 °F /  28.1 °C 48.0 °F /  8.9 °C 29.54in /  1000.2hPa NNW 12.1mph /  19.5km/h 13.0mph /  20.9km/h 30% 0.00in /  0mm meteobridge W/m2
15:11 81.3 °F /  27.4 °C 46.9 °F /  8.3 °C 29.54in /  1000.2hPa NNW 10.1mph /  16.3km/h 15.0mph /  24.1km/h 30% 0.00in /  0mm meteobridge W/m2
15:17 81.0 °F /  27.2 °C 47.5 °F /  8.6 °C 29.53in /  999.9hPa NNE 10.1mph /  16.3km/h 18.0mph /  29km/h 31% 0.00in /  0mm meteobridge W/m2
15:23 80.6 °F /  27 °C 48.0 °F /  8.9 °C 29.53in /  999.9hPa WNW 6.0mph /  9.7km/h 10.0mph /  16.1km/h 32% 0.00in /  0mm meteobridge W/m2
15:29 80.8 °F /  27.1 °C 47.3 °F /  8.5 °C 29.53in /  999.9hPa NNW 11.0mph /  17.7km/h 12.0mph /  19.3km/h 31% 0.00in /  0mm meteobridge W/m2
15:35 81.1 °F /  27.3 °C 48.6 °F /  9.2 °C 29.52in /  999.5hPa North 6.0mph /  9.7km/h 16.0mph /  25.7km/h 32% 0.00in /  0mm meteobridge W/m2
15:41 81.0 °F /  27.2 °C 47.5 °F /  8.6 °C 29.52in /  999.5hPa NNW 8.9mph /  14.3km/h 18.0mph /  29km/h 31% 0.00in /  0mm meteobridge W/m2
15:48 81.0 °F /  27.2 °C 47.5 °F /  8.6 °C 29.53in /  999.9hPa North 15.0mph /  24.1km/h 18.0mph /  29km/h 31% 0.00in /  0mm meteobridge W/m2
15:54 80.8 °F /  27.1 °C 47.3 °F /  8.5 °C 29.53in /  999.9hPa NNW 0.9mph /  1.4km/h 12.0mph /  19.3km/h 31% 0.00in /  0mm meteobridge W/m2
16:00 81.0 °F /  27.2 °C 47.5 °F /  8.6 °C 29.53in /  999.9hPa North 6.0mph /  9.7km/h 10.0mph /  16.1km/h 31% 0.00in /  0mm meteobridge W/m2
16:06 81.0 °F /  27.2 °C 47.5 °F /  8.6 °C 29.53in /  999.9hPa North 6.0mph /  9.7km/h 14.0mph /  22.5km/h 31% 0.00in /  0mm meteobridge W/m2
16:12 81.3 °F /  27.4 °C 47.8 °F /  8.8 °C 29.52in /  999.5hPa NE 6.0mph /  9.7km/h 10.0mph /  16.1km/h 31% 0.00in /  0mm meteobridge W/m2
16:18 82.6 °F /  28.1 °C 48.0 °F /  8.9 °C 29.52in /  999.5hPa NNE 4.9mph /  7.9km/h 11.0mph /  17.7km/h 30% 0.00in /  0mm meteobridge W/m2
16:24 83.5 °F /  28.6 °C 47.8 °F /  8.8 °C 29.52in /  999.5hPa North 6.0mph /  9.7km/h 11.0mph /  17.7km/h 29% 0.00in /  0mm meteobridge W/m2
16:31 83.5 °F /  28.6 °C 48.7 °F /  9.3 °C 29.51in /  999.2hPa WNW 6.0mph /  9.7km/h 7.0mph /  11.3km/h 30% 0.00in /  0mm meteobridge W/m2
16:37 82.2 °F /  27.9 °C 47.7 °F /  8.7 °C 29.51in /  999.2hPa North 10.1mph /  16.3km/h 14.0mph /  22.5km/h 30% 0.00in /  0mm meteobridge W/m2
16:43 81.3 °F /  27.4 °C 46.9 °F /  8.3 °C 29.51in /  999.2hPa North 6.9mph /  11.1km/h 15.0mph /  24.1km/h 30% 0.00in /  0mm meteobridge W/m2
16:49 81.0 °F /  27.2 °C 47.5 °F /  8.6 °C 29.51in /  999.2hPa North 8.9mph /  14.3km/h 12.0mph /  19.3km/h 31% 0.00in /  0mm meteobridge W/m2
16:55 80.8 °F /  27.1 °C 47.3 °F /  8.5 °C 29.51in /  999.2hPa NNW 4.0mph /  6.4km/h 10.0mph /  16.1km/h 31% 0.00in /  0mm meteobridge W/m2
17:01 80.8 °F /  27.1 °C 47.3 °F /  8.5 °C 29.51in /  999.2hPa NNE 2.9mph /  4.7km/h 6.0mph /  9.7km/h 31% 0.00in /  0mm meteobridge W/m2
17:07 81.3 °F /  27.4 °C 46.9 °F /  8.3 °C 29.51in /  999.2hPa North 2.0mph /  3.2km/h 7.0mph /  11.3km/h 30% 0.00in /  0mm meteobridge W/m2
17:14 81.7 °F /  27.6 °C 48.0 °F /  8.9 °C 29.51in /  999.2hPa NNW 6.9mph /  11.1km/h 9.0mph /  14.5km/h 31% 0.00in /  0mm meteobridge W/m2
17:20 82.2 °F /  27.9 °C 47.7 °F /  8.7 °C 29.51in /  999.2hPa NNE 6.0mph /  9.7km/h 12.0mph /  19.3km/h 30% 0.00in /  0mm meteobridge W/m2
17:26 82.4 °F /  28 °C 46.9 °F /  8.3 °C 29.51in /  999.2hPa NNE 8.9mph /  14.3km/h 13.0mph /  20.9km/h 29% 0.00in /  0mm meteobridge W/m2
17:32 82.0 °F /  27.8 °C 47.5 °F /  8.6 °C 29.51in /  999.2hPa North 6.0mph /  9.7km/h 10.0mph /  16.1km/h 30% 0.00in /  0mm meteobridge W/m2
17:38 82.0 °F /  27.8 °C 47.5 °F /  8.6 °C 29.51in /  999.2hPa North 2.9mph /  4.7km/h 6.0mph /  9.7km/h 30% 0.00in /  0mm meteobridge W/m2
17:44 81.9 °F /  27.7 °C 47.3 °F /  8.5 °C 29.51in /  999.2hPa North 8.1mph /  13km/h 10.0mph /  16.1km/h 30% 0.00in /  0mm meteobridge W/m2
17:50 81.3 °F /  27.4 °C 47.8 °F /  8.8 °C 29.51in /  999.2hPa North 6.0mph /  9.7km/h 13.0mph /  20.9km/h 31% 0.00in /  0mm meteobridge W/m2
17:56 81.1 °F /  27.3 °C 47.7 °F /  8.7 °C 29.52in /  999.5hPa North 4.0mph /  6.4km/h 9.0mph /  14.5km/h 31% 0.00in /  0mm meteobridge W/m2
18:03 81.0 °F /  27.2 °C 47.5 °F /  8.6 °C 29.52in /  999.5hPa South 4.0mph /  6.4km/h 5.0mph /  8km/h 31% 0.00in /  0mm meteobridge W/m2
18:09 79.5 °F /  26.4 °C 53.1 °F /  11.7 °C 29.52in /  999.5hPa SE 4.0mph /  6.4km/h 4.0mph /  6.4km/h 40% 0.00in /  0mm meteobridge W/m2
18:15 77.2 °F /  25.1 °C 52.9 °F /  11.6 °C 29.52in /  999.5hPa South 12.1mph /  19.5km/h 12.1mph /  19.5km/h 43% 0.00in /  0mm meteobridge W/m2
18:21 75.9 °F /  24.4 °C 53.1 °F /  11.7 °C 29.52in /  999.5hPa South 6.9mph /  11.1km/h 12.0mph /  19.3km/h 45% 0.00in /  0mm meteobridge W/m2
18:27 75.6 °F /  24.2 °C 53.2 °F /  11.8 °C 29.53in /  999.9hPa South 11.0mph /  17.7km/h 12.0mph /  19.3km/h 46% 0.00in /  0mm meteobridge W/m2
18:33 75.2 °F /  24 °C 53.6 °F /  12 °C 29.53in /  999.9hPa SSE 15.0mph /  24.1km/h 17.0mph /  27.4km/h 47% 0.00in /  0mm meteobridge W/m2
18:39 74.7 °F /  23.7 °C 54.3 °F /  12.4 °C 29.54in /  1000.2hPa South 13.0mph /  20.9km/h 13.0mph /  20.9km/h 49% 0.00in /  0mm meteobridge W/m2
18:45 74.7 °F /  23.7 °C 54.3 °F /  12.4 °C 29.54in /  1000.2hPa South 13.0mph /  20.9km/h -999.0mph /  -1607.7km/h 49% 0.00in /  0mm meteobridge W/m2
18:53 74.7 °F /  23.7 °C 54.3 °F /  12.4 °C 29.54in /  1000.2hPa North -999.9mph /  -1609.1km/h -999.0mph /  -1607.7km/h 49% 0.00in /  0mm meteobridge W/m2
Regenstein, Windhoek, Namibia
Compliments of Weather Underground - 2.5 mb